sensor_id;sensor_type;location;lat;lon;timestamp;pressure;altitude;pressure_sealevel;temperature;humidity
51524;BME280;37610;51.790;21.590;2022-07-06T18:04:14;100198.01;;;20.29;46.64
51524;BME280;37610;51.790;21.590;2022-07-06T18:08:16;100198.04;;;20.26;46.88
51524;BME280;37610;51.790;21.590;2022-07-06T18:12:17;100201.06;;;20.28;47.03
51524;BME280;37610;51.790;21.590;2022-07-06T18:16:18;100201.29;;;20.30;47.19
51524;BME280;37610;51.790;21.590;2022-07-06T18:20:20;100200.97;;;20.28;47.32
51524;BME280;37610;51.790;21.590;2022-07-06T18:24:22;100203.14;;;20.25;47.43
51524;BME280;37610;51.790;21.590;2022-07-06T18:28:23;100200.20;;;20.18;47.66
51524;BME280;37610;51.790;21.590;2022-07-06T18:32:25;100202.67;;;20.13;48.17
51524;BME280;37610;51.790;21.590;2022-07-06T18:36:26;100204.82;;;20.07;48.57
51524;BME280;37610;51.790;21.590;2022-07-06T18:40:29;100208.83;;;20.04;49.02
51524;BME280;37610;51.790;21.590;2022-07-06T18:44:30;100210.40;;;20.05;49.33
51524;BME280;37610;51.790;21.590;2022-07-06T18:48:32;100212.55;;;20.00;49.61
51524;BME280;37610;51.790;21.590;2022-07-06T18:52:34;100214.84;;;19.92;49.93
51524;BME280;37610;51.790;21.590;2022-07-06T18:56:36;100224.02;;;19.86;50.09
51524;BME280;37610;51.790;21.590;2022-07-06T19:00:38;100222.83;;;19.79;50.13
51524;BME280;37610;51.790;21.590;2022-07-06T19:04:41;100228.28;;;19.69;50.27
51524;BME280;37610;51.790;21.590;2022-07-06T19:08:43;100234.48;;;19.59;50.39
51524;BME280;37610;51.790;21.590;2022-07-06T19:12:44;100241.16;;;19.51;50.78
51524;BME280;37610;51.790;21.590;2022-07-06T19:16:45;100244.14;;;19.47;51.26
51524;BME280;37610;51.790;21.590;2022-07-06T19:20:47;100247.56;;;19.33;51.61
51524;BME280;37610;51.790;21.590;2022-07-06T19:24:48;100256.39;;;19.20;52.31
51524;BME280;37610;51.790;21.590;2022-07-06T19:28:50;100258.05;;;19.17;52.64
51524;BME280;37610;51.790;21.590;2022-07-06T19:32:52;100258.38;;;19.09;52.71
51524;BME280;37610;51.790;21.590;2022-07-06T19:36:54;100264.23;;;19.01;52.93
51524;BME280;37610;51.790;21.590;2022-07-06T19:40:56;100263.38;;;18.91;53.26
51524;BME280;37610;51.790;21.590;2022-07-06T19:44:57;100269.23;;;18.83;53.65
51524;BME280;37610;51.790;21.590;2022-07-06T19:48:59;100267.33;;;18.72;54.00
51524;BME280;37610;51.790;21.590;2022-07-06T19:53:00;100272.93;;;18.60;54.41
51524;BME280;37610;51.790;21.590;2022-07-06T19:57:02;100268.77;;;18.52;54.78
51524;BME280;37610;51.790;21.590;2022-07-06T20:01:05;100275.93;;;18.42;55.08
51524;BME280;37610;51.790;21.590;2022-07-06T20:05:07;100276.33;;;18.30;55.27
51524;BME280;37610;51.790;21.590;2022-07-06T20:09:08;100270.09;;;18.18;55.64
51524;BME280;37610;51.790;21.590;2022-07-06T20:13:10;100270.96;;;18.03;56.00
51524;BME280;37610;51.790;21.590;2022-07-06T20:17:11;100273.56;;;17.88;56.39
51524;BME280;37610;51.790;21.590;2022-07-06T20:21:13;100272.34;;;17.78;56.89
51524;BME280;37610;51.790;21.590;2022-07-06T20:25:14;100276.00;;;17.66;57.01
51524;BME280;37610;51.790;21.590;2022-07-06T20:29:16;100278.78;;;17.52;57.28
51524;BME280;37610;51.790;21.590;2022-07-06T20:33:17;100275.14;;;17.43;57.63
51524;BME280;37610;51.790;21.590;2022-07-06T20:37:19;100276.52;;;17.37;57.95
51524;BME280;37610;51.790;21.590;2022-07-06T20:41:20;100275.76;;;17.28;58.19
51524;BME280;37610;51.790;21.590;2022-07-06T20:45:39;100280.90;;;17.17;58.50
51524;BME280;37610;51.790;21.590;2022-07-06T20:49:58;100281.61;;;17.06;58.86
51524;BME280;37610;51.790;21.590;2022-07-06T20:54:18;100283.91;;;17.02;58.99
51524;BME280;37610;51.790;21.590;2022-07-06T20:58:38;100278.20;;;16.94;59.05
51524;BME280;37610;51.790;21.590;2022-07-06T21:02:57;100277.33;;;16.88;59.42
51524;BME280;37610;51.790;21.590;2022-07-06T21:07:16;100271.58;;;16.85;59.67
51524;BME280;37610;51.790;21.590;2022-07-06T21:11:35;100276.75;;;16.77;59.66
51524;BME280;37610;51.790;21.590;2022-07-06T21:15:55;100279.59;;;16.67;59.86
51524;BME280;37610;51.790;21.590;2022-07-06T21:20:13;100276.35;;;16.57;60.38
51524;BME280;37610;51.790;21.590;2022-07-06T21:24:33;100271.69;;;16.53;60.19
51524;BME280;37610;51.790;21.590;2022-07-06T21:28:52;100274.94;;;16.40;60.59
51524;BME280;37610;51.790;21.590;2022-07-06T21:33:11;100278.92;;;16.36;61.07
51524;BME280;37610;51.790;21.590;2022-07-06T21:37:31;100287.10;;;16.31;61.02
51524;BME280;37610;51.790;21.590;2022-07-06T21:41:50;100289.63;;;16.22;61.26
51524;BME280;37610;51.790;21.590;2022-07-06T21:46:09;100285.05;;;16.17;61.59
51524;BME280;37610;51.790;21.590;2022-07-06T21:50:29;100291.35;;;16.14;61.51
51524;BME280;37610;51.790;21.590;2022-07-06T21:54:48;100296.86;;;16.03;60.94
51524;BME280;37610;51.790;21.590;2022-07-06T21:59:07;100296.14;;;15.86;61.79
51524;BME280;37610;51.790;21.590;2022-07-06T22:03:26;100292.29;;;15.88;61.93
51524;BME280;37610;51.790;21.590;2022-07-06T22:07:45;100296.17;;;15.73;61.38
51524;BME280;37610;51.790;21.590;2022-07-06T22:12:05;100299.48;;;15.48;61.92
51524;BME280;37610;51.790;21.590;2022-07-06T22:16:24;100293.21;;;15.38;62.28
51524;BME280;37610;51.790;21.590;2022-07-06T22:20:45;100295.38;;;15.16;62.72
51524;BME280;37610;51.790;21.590;2022-07-06T22:25:04;100294.92;;;15.05;63.39
51524;BME280;37610;51.790;21.590;2022-07-06T22:29:24;100293.36;;;15.09;64.09
51524;BME280;37610;51.790;21.590;2022-07-06T22:33:25;100299.41;;;15.18;64.19
51524;BME280;37610;51.790;21.590;2022-07-06T22:37:27;100299.88;;;15.28;64.29
51524;BME280;37610;51.790;21.590;2022-07-06T22:41:29;100305.85;;;15.34;64.00
51524;BME280;37610;51.790;21.590;2022-07-06T22:45:34;100301.17;;;15.34;64.22
51524;BME280;37610;51.790;21.590;2022-07-06T22:49:35;100300.52;;;15.36;64.11
51524;BME280;37610;51.790;21.590;2022-07-06T22:53:37;100298.33;;;15.42;64.17
51524;BME280;37610;51.790;21.590;2022-07-06T22:57:39;100294.89;;;15.42;63.99
51524;BME280;37610;51.790;21.590;2022-07-06T23:01:40;100300.22;;;15.40;63.96
51524;BME280;37610;51.790;21.590;2022-07-06T23:05:41;100300.19;;;15.41;64.19
51524;BME280;37610;51.790;21.590;2022-07-06T23:09:43;100303.46;;;15.43;64.34
51524;BME280;37610;51.790;21.590;2022-07-06T23:13:44;100305.76;;;15.43;64.32
51524;BME280;37610;51.790;21.590;2022-07-06T23:17:46;100300.30;;;15.41;64.49
51524;BME280;37610;51.790;21.590;2022-07-06T23:21:47;100299.02;;;15.42;64.42
51524;BME280;37610;51.790;21.590;2022-07-06T23:25:49;100298.69;;;15.19;64.17
51524;BME280;37610;51.790;21.590;2022-07-06T23:29:51;100292.67;;;14.98;64.78
51524;BME280;37610;51.790;21.590;2022-07-06T23:33:52;100293.42;;;14.95;65.08
51524;BME280;37610;51.790;21.590;2022-07-06T23:37:53;100283.20;;;14.89;64.76
51524;BME280;37610;51.790;21.590;2022-07-06T23:41:55;100277.16;;;14.81;65.23
51524;BME280;37610;51.790;21.590;2022-07-06T23:45:58;100276.61;;;14.85;65.63
51524;BME280;37610;51.790;21.590;2022-07-06T23:50:00;100275.83;;;14.93;65.89
51524;BME280;37610;51.790;21.590;2022-07-06T23:54:02;100282.90;;;15.05;65.97
51524;BME280;37610;51.790;21.590;2022-07-06T23:58:04;100302.05;;;15.05;65.79
